createdAt,value
2022-12-20T00:05:28.273Z,1589.0869565217392
2022-12-20T00:23:15.015Z,1596.8327759197325
2022-12-20T00:29:35.247Z,1574.9598662207359
2022-12-20T00:41:12.849Z,1524.8628762541805
2022-12-20T00:47:33.544Z,1523.8996655518395
2022-12-20T00:53:54.930Z,1502.4782608695652
2022-12-20T01:04:31.954Z,1511.3979933110368
2022-12-20T01:10:52.298Z,1524.8729096989966
2022-12-20T01:30:40.957Z,1446.4113712374583
2022-12-20T01:37:01.121Z,1405.0133779264213
2022-12-20T01:43:21.378Z,1402.6254180602007
2022-12-20T01:59:29.102Z,1398.6120401337794
2022-12-20T02:05:49.343Z,1363.8461538461538
2022-12-20T02:12:09.341Z,1358.7692307692307
2022-12-20T02:18:30.006Z,1365.2909698996655
2022-12-20T02:24:49.337Z,1446.2107023411372
2022-12-20T02:31:09.141Z,1481.4581939799332
2022-12-20T02:38:17.189Z,1397.628762541806
2022-12-20T02:44:38.187Z,1335.6020066889632
2022-12-20T02:56:49.295Z,1266.361204013378
2022-12-20T03:03:09.210Z,1302.7826086956522
2022-12-20T03:09:29.113Z,1259.4983277591973
2022-12-20T03:15:48.153Z,1267.5652173913043
2022-12-20T03:25:33.583Z,1222.9063545150502
2022-12-20T03:31:53.445Z,1221.8729096989966
2022-12-20T03:38:14.060Z,1186.9565217391305
2022-12-20T03:44:33.603Z,1163.3879598662206
2022-12-20T03:50:52.978Z,1153.6254180602007
2022-12-20T04:11:55.697Z,1120.0635451505016
2022-12-20T04:18:15.743Z,1102.123745819398
2022-12-20T04:27:16.800Z,1113.8929765886287
2022-12-20T04:37:04.038Z,1062.0401337792641
2022-12-20T04:43:24.534Z,1033.896321070234
2022-12-20T04:49:44.884Z,1072.8862876254182
2022-12-20T04:56:05.031Z,1015.0635451505017
2022-12-20T05:07:18.834Z,975.0200668896321
2022-12-20T05:13:38.560Z,939.9431438127091
2022-12-20T05:19:58.558Z,1006.1839464882943
2022-12-20T05:28:55.563Z,982.9464882943143
2022-12-20T05:35:17.438Z,930.7324414715719
2022-12-20T05:43:55.868Z,995.0468227424749
2022-12-20T05:56:10.295Z,913.6755852842809
2022-12-20T06:02:29.844Z,952.4347826086956
2022-12-20T06:08:49.109Z,1014.180602006689
2022-12-20T06:19:06.129Z,1047.160535117057
2022-12-20T06:25:25.656Z,1015.6755852842809
2022-12-20T06:31:44.921Z,1030.5351170568563
2022-12-20T06:40:38.751Z,1005.1505016722408
2022-12-20T06:47:01.229Z,969.5418060200669
2022-12-20T06:54:17.983Z,990.2408026755853
2022-12-20T07:02:33.393Z,1019.247491638796
2022-12-20T07:08:54.891Z,1044.9732441471572
2022-12-20T07:17:06.105Z,1003.7759197324415
2022-12-20T07:23:28.719Z,1004.9197324414715
2022-12-20T07:29:49.510Z,1009.7959866220735
2022-12-20T07:40:56.083Z,1031.5986622073578
2022-12-20T07:47:17.970Z,1142.9197324414715
2022-12-20T08:05:02.737Z,1056.9832775919733
2022-12-20T08:15:35.873Z,1182.2408026755852
2022-12-20T08:22:00.775Z,1102.2140468227424
2022-12-20T08:28:29.758Z,1135.1137123745818
2022-12-20T08:34:54.166Z,1148.28762541806
2022-12-20T08:41:18.510Z,1155.5418060200668
2022-12-20T08:47:44.189Z,1115.0267558528428
2022-12-20T08:54:11.532Z,1119.3511705685619
2022-12-20T09:04:51.914Z,1081.1839464882944
2022-12-20T09:11:15.296Z,1167.8829431438128
2022-12-20T09:17:38.193Z,1140.8929765886287
2022-12-20T09:28:03.194Z,1060.3444816053511
2022-12-20T09:46:07.789Z,1008.6722408026756
2022-12-20T09:52:29.482Z,1102.4046822742475
2022-12-20T09:58:52.869Z,1070.9698996655518
2022-12-20T10:08:13.388Z,1083.3210702341137
2022-12-20T10:16:12.175Z,1122.6220735785953
2022-12-20T10:27:20.542Z,1117.1137123745818
2022-12-20T10:33:46.176Z,1111.123745819398
2022-12-20T10:40:09.343Z,1102.5953177257525
2022-12-20T10:46:32.011Z,1112.7792642140469
2022-12-20T10:56:24.789Z,1143.0903010033444
2022-12-20T11:02:46.679Z,1211.6488294314381
2022-12-20T11:09:09.958Z,1120.7759197324415
2022-12-20T11:15:34.278Z,1082.7290969899666
2022-12-20T11:25:34.896Z,1086.6020066889632
2022-12-20T11:31:57.731Z,1051.5551839464883
2022-12-20T11:38:19.335Z,1005.9632107023411
2022-12-20T11:44:50.098Z,988.0635451505017
2022-12-20T11:59:47.647Z,995.1973244147157
2022-12-20T12:06:09.723Z,1030.6354515050168
2022-12-20T12:12:33.882Z,994.5351170568562
2022-12-20T12:18:57.557Z,980.0167224080268
2022-12-20T12:25:19.595Z,948.38127090301
2022-12-20T12:31:41.413Z,1016.2675585284281
2022-12-20T12:38:03.819Z,1010.9096989966555
2022-12-20T12:46:12.440Z,1016.6387959866221
2022-12-20T12:52:36.947Z,995.3678929765887
2022-12-20T12:58:59.150Z,1030.6153846153845
2022-12-20T13:05:25.853Z,978.7725752508361
2022-12-20T13:11:53.703Z,1001.2775919732442
2022-12-20T13:18:23.227Z,1051.4046822742475
2022-12-20T13:24:45.894Z,966.4615384615385
2022-12-20T13:31:09.134Z,1036.5953177257525
2022-12-20T13:42:31.746Z,1005.1605351170568
2022-12-20T13:52:32.289Z,1089.732441471572
2022-12-20T13:58:54.372Z,1117.484949832776
2022-12-20T14:05:17.456Z,1150.494983277592
2022-12-20T14:15:54.403Z,1222.3344481605352
2022-12-20T14:23:41.293Z,1115.7892976588628
2022-12-20T14:30:04.168Z,1142.247491638796
2022-12-20T14:36:26.962Z,1216.7759197324415
2022-12-20T14:42:51.261Z,1178.7391304347825
2022-12-20T14:49:15.262Z,1135.896321070234
2022-12-20T15:00:34.552Z,1123.675585284281
2022-12-20T15:06:54.044Z,1062.6120401337794
2022-12-20T15:13:14.157Z,1112.5284280936455
2022-12-20T15:23:43.816Z,1026.4515050167224
2022-12-20T15:30:46.997Z,1068.9030100334448
2022-12-20T15:37:06.795Z,1363.4548494983278
2022-12-20T15:43:27.005Z,1339.1939799331103
2022-12-20T15:49:50.486Z,2695.57525083612
2022-12-20T16:01:09.427Z,1320.8026755852843
2022-12-20T16:08:18.280Z,1428.0802675585285
2022-12-20T16:14:37.724Z,1380.8829431438128
2022-12-20T16:20:57.539Z,1302.4916387959865
2022-12-20T16:27:18.938Z,1225.5652173913043
2022-12-20T16:33:42.893Z,1198.836120401338
2022-12-20T16:48:20.119Z,1348.9264214046823
2022-12-20T16:54:40.048Z,1379.1270903010034
2022-12-20T17:00:59.939Z,1467.6622073578596
2022-12-20T17:11:21.763Z,1540.7658862876253
2022-12-20T17:17:41.062Z,2000.7491638795987
2022-12-20T17:24:01.548Z,1645.876254180602
2022-12-20T17:30:21.461Z,1615.9866220735787
2022-12-20T17:36:40.290Z,1736.1973244147157
2022-12-20T17:44:52.529Z,1702.163879598662
2022-12-20T17:51:12.934Z,1834.0234113712374
2022-12-20T17:57:33.565Z,1832.23745819398
2022-12-20T18:04:04.146Z,1902.6220735785953
2022-12-20T18:10:27.285Z,1974.371237458194
2022-12-20T18:16:57.927Z,1957.2040133779265
2022-12-20T18:23:23.587Z,2015.819397993311
2022-12-20T18:29:44.726Z,2228.217391304348
2022-12-20T18:36:04.739Z,2108.3578595317726
2022-12-20T18:42:26.480Z,2291.0267558528426
2022-12-20T18:48:47.654Z,2254.2441471571906
2022-12-20T18:55:09.905Z,2243.076923076923
2022-12-20T19:01:34.540Z,2257.6153846153848
2022-12-20T19:10:38.154Z,2243.418060200669
2022-12-20T19:17:02.877Z,2310.030100334448
2022-12-20T19:23:24.102Z,2218.926421404682
2022-12-20T19:36:03.322Z,2354.9096989966556
2022-12-20T19:47:46.066Z,2446.6354515050166
2022-12-20T19:56:35.824Z,2434.505016722408
2022-12-20T20:08:35.971Z,2308.2441471571906
2022-12-20T20:14:56.728Z,2400.190635451505
2022-12-20T20:22:11.695Z,2714.829431438127
2022-12-20T20:28:33.140Z,2535.2909698996655
2022-12-20T20:37:35.577Z,2577.210702341137
2022-12-20T20:48:13.778Z,2597.648829431438
2022-12-20T20:54:51.362Z,2555.3578595317726
2022-12-20T21:06:44.448Z,2504.608695652174
2022-12-20T21:13:06.017Z,2554.123745819398
2022-12-20T21:19:27.707Z,2680.0334448160534
2022-12-20T21:25:49.366Z,2627.7190635451507
2022-12-20T21:32:10.682Z,2670.76254180602
2022-12-20T21:38:31.839Z,2776.866220735786
2022-12-20T21:44:56.567Z,2879.1772575250834
2022-12-20T21:51:22.203Z,2956.344481605351
2022-12-20T21:57:43.716Z,3079.886287625418
2022-12-20T22:04:04.285Z,3106.505016722408
2022-12-20T22:13:15.212Z,3223.1939799331103
2022-12-20T22:19:37.373Z,3268.454849498328
2022-12-20T22:26:00.611Z,3320.5585284280937
2022-12-20T22:48:35.923Z,3320.9799331103677
2022-12-20T22:57:21.896Z,3373.183946488294
2022-12-20T23:03:43.462Z,3286.183946488294
2022-12-20T23:15:33.232Z,3263.8896321070233
2022-12-20T23:26:51.075Z,3262.2040133779265
2022-12-20T23:33:10.174Z,3277.153846153846
2022-12-20T23:39:30.705Z,3174.6622073578596
2022-12-20T23:45:50.359Z,3123.200668896321
2022-12-20T23:52:10.425Z,3220.5551839464883
2022-12-20T23:58:31.040Z,3240.8026755852843
